sensor_id;sensor_type;location;lat;lon;timestamp;P1;durP1;ratioP1;P2;durP2;ratioP2
7295;SDS011;40758;54.038;11.684;2024-01-10T00:01:14;6.30;;;2.72;;
7295;SDS011;40758;54.038;11.684;2024-01-10T00:03:41;7.75;;;6.93;;
7295;SDS011;40758;54.038;11.684;2024-01-10T00:06:09;8.07;;;6.13;;
7295;SDS011;40758;54.038;11.684;2024-01-10T00:08:37;8.77;;;3.42;;
7295;SDS011;40758;54.038;11.684;2024-01-10T00:11:04;9.13;;;3.95;;
7295;SDS011;40758;54.038;11.684;2024-01-10T00:13:31;8.70;;;5.03;;
7295;SDS011;40758;54.038;11.684;2024-01-10T00:15:58;10.30;;;4.13;;
7295;SDS011;40758;54.038;11.684;2024-01-10T00:18:25;9.80;;;4.55;;
7295;SDS011;40758;54.038;11.684;2024-01-10T00:20:52;9.48;;;6.60;;
7295;SDS011;40758;54.038;11.684;2024-01-10T00:23:22;9.35;;;7.15;;
7295;SDS011;40758;54.038;11.684;2024-01-10T00:25:49;11.02;;;4.28;;
7295;SDS011;40758;54.038;11.684;2024-01-10T00:28:16;14.60;;;4.78;;
7295;SDS011;40758;54.038;11.684;2024-01-10T00:30:44;13.18;;;8.77;;
7295;SDS011;40758;54.038;11.684;2024-01-10T00:33:14;10.55;;;7.40;;
7295;SDS011;40758;54.038;11.684;2024-01-10T00:35:40;10.02;;;3.90;;
7295;SDS011;40758;54.038;11.684;2024-01-10T00:38:08;6.00;;;2.95;;
7295;SDS011;40758;54.038;11.684;2024-01-10T00:40:35;10.07;;;3.83;;
7295;SDS011;40758;54.038;11.684;2024-01-10T00:43:02;9.27;;;4.53;;
7295;SDS011;40758;54.038;11.684;2024-01-10T00:45:30;10.52;;;4.47;;
7295;SDS011;40758;54.038;11.684;2024-01-10T00:47:57;9.38;;;5.40;;
7295;SDS011;40758;54.038;11.684;2024-01-10T00:50:24;9.10;;;6.65;;
7295;SDS011;40758;54.038;11.684;2024-01-10T00:52:51;8.23;;;6.20;;
7295;SDS011;40758;54.038;11.684;2024-01-10T00:55:17;8.57;;;3.85;;
7295;SDS011;40758;54.038;11.684;2024-01-10T00:57:44;10.30;;;3.88;;
7295;SDS011;40758;54.038;11.684;2024-01-10T01:00:11;2.45;;;1.10;;
7295;SDS011;40758;54.038;11.684;2024-01-10T01:02:39;11.20;;;5.20;;
7295;SDS011;40758;54.038;11.684;2024-01-10T01:05:06;8.88;;;3.75;;
7295;SDS011;40758;54.038;11.684;2024-01-10T01:07:36;10.45;;;4.13;;
7295;SDS011;40758;54.038;11.684;2024-01-10T01:10:03;9.98;;;7.15;;
7295;SDS011;40758;54.038;11.684;2024-01-10T01:12:30;4.25;;;2.58;;
7295;SDS011;40758;54.038;11.684;2024-01-10T01:14:57;10.80;;;3.88;;
7295;SDS011;40758;54.038;11.684;2024-01-10T01:17:24;8.30;;;3.85;;
7295;SDS011;40758;54.038;11.684;2024-01-10T01:19:51;9.60;;;3.97;;
7295;SDS011;40758;54.038;11.684;2024-01-10T01:22:17;11.15;;;5.57;;
7295;SDS011;40758;54.038;11.684;2024-01-10T01:24:44;8.27;;;4.05;;
7295;SDS011;40758;54.038;11.684;2024-01-10T01:27:12;9.02;;;4.78;;
7295;SDS011;40758;54.038;11.684;2024-01-10T01:29:38;9.07;;;3.42;;
7295;SDS011;40758;54.038;11.684;2024-01-10T01:32:05;8.63;;;3.70;;
7295;SDS011;40758;54.038;11.684;2024-01-10T01:34:32;10.70;;;4.85;;
7295;SDS011;40758;54.038;11.684;2024-01-10T01:36:59;9.73;;;4.00;;
7295;SDS011;40758;54.038;11.684;2024-01-10T01:39:27;10.70;;;4.15;;
7295;SDS011;40758;54.038;11.684;2024-01-10T01:41:54;9.93;;;4.38;;
7295;SDS011;40758;54.038;11.684;2024-01-10T01:44:20;4.50;;;2.00;;
7295;SDS011;40758;54.038;11.684;2024-01-10T01:46:47;9.73;;;3.95;;
7295;SDS011;40758;54.038;11.684;2024-01-10T01:49:14;10.55;;;4.90;;
7295;SDS011;40758;54.038;11.684;2024-01-10T01:51:41;10.90;;;4.95;;
7295;SDS011;40758;54.038;11.684;2024-01-10T01:54:08;7.15;;;4.78;;
7295;SDS011;40758;54.038;11.684;2024-01-10T01:56:35;1.60;;;0.90;;
7295;SDS011;40758;54.038;11.684;2024-01-10T01:59:04;10.48;;;3.58;;
7295;SDS011;40758;54.038;11.684;2024-01-10T02:01:31;7.72;;;3.92;;
7295;SDS011;40758;54.038;11.684;2024-01-10T02:03:59;6.88;;;2.33;;
7295;SDS011;40758;54.038;11.684;2024-01-10T02:06:28;10.95;;;4.57;;
7295;SDS011;40758;54.038;11.684;2024-01-10T02:08:59;15.35;;;6.57;;
7295;SDS011;40758;54.038;11.684;2024-01-10T02:11:26;13.07;;;9.85;;
7295;SDS011;40758;54.038;11.684;2024-01-10T02:13:53;11.07;;;4.60;;
7295;SDS011;40758;54.038;11.684;2024-01-10T02:16:23;12.48;;;8.88;;
7295;SDS011;40758;54.038;11.684;2024-01-10T02:18:51;11.55;;;5.38;;
7295;SDS011;40758;54.038;11.684;2024-01-10T02:21:20;11.63;;;5.15;;
7295;SDS011;40758;54.038;11.684;2024-01-10T02:23:48;18.92;;;6.50;;
7295;SDS011;40758;54.038;11.684;2024-01-10T02:26:15;12.32;;;6.78;;
7295;SDS011;40758;54.038;11.684;2024-01-10T02:28:42;12.15;;;4.95;;
7295;SDS011;40758;54.038;11.684;2024-01-10T02:31:09;7.40;;;4.85;;
7295;SDS011;40758;54.038;11.684;2024-01-10T02:33:36;11.07;;;7.80;;
7295;SDS011;40758;54.038;11.684;2024-01-10T02:36:03;11.13;;;5.82;;
7295;SDS011;40758;54.038;11.684;2024-01-10T02:38:30;12.77;;;6.95;;
7295;SDS011;40758;54.038;11.684;2024-01-10T02:40:57;14.20;;;4.72;;
7295;SDS011;40758;54.038;11.684;2024-01-10T02:43:24;14.38;;;12.25;;
7295;SDS011;40758;54.038;11.684;2024-01-10T02:45:51;15.73;;;8.07;;
7295;SDS011;40758;54.038;11.684;2024-01-10T02:48:18;16.23;;;6.20;;
7295;SDS011;40758;54.038;11.684;2024-01-10T02:50:44;12.52;;;5.25;;
7295;SDS011;40758;54.038;11.684;2024-01-10T02:53:11;15.00;;;8.68;;
7295;SDS011;40758;54.038;11.684;2024-01-10T02:55:38;12.73;;;7.03;;
7295;SDS011;40758;54.038;11.684;2024-01-10T02:58:05;11.98;;;5.25;;
7295;SDS011;40758;54.038;11.684;2024-01-10T03:00:31;12.95;;;5.45;;
7295;SDS011;40758;54.038;11.684;2024-01-10T03:02:58;13.45;;;7.25;;
7295;SDS011;40758;54.038;11.684;2024-01-10T03:05:25;11.98;;;5.97;;
7295;SDS011;40758;54.038;11.684;2024-01-10T03:07:52;15.38;;;9.98;;
7295;SDS011;40758;54.038;11.684;2024-01-10T03:10:19;11.95;;;4.75;;
7295;SDS011;40758;54.038;11.684;2024-01-10T03:12:45;11.40;;;6.40;;
7295;SDS011;40758;54.038;11.684;2024-01-10T03:15:12;9.93;;;4.55;;
7295;SDS011;40758;54.038;11.684;2024-01-10T03:17:39;10.10;;;3.85;;
7295;SDS011;40758;54.038;11.684;2024-01-10T03:20:06;11.63;;;4.78;;
7295;SDS011;40758;54.038;11.684;2024-01-10T03:22:34;12.05;;;9.20;;
7295;SDS011;40758;54.038;11.684;2024-01-10T03:25:01;10.43;;;3.92;;
7295;SDS011;40758;54.038;11.684;2024-01-10T03:27:29;12.98;;;8.40;;
7295;SDS011;40758;54.038;11.684;2024-01-10T03:29:55;14.25;;;9.93;;
7295;SDS011;40758;54.038;11.684;2024-01-10T03:32:22;12.27;;;7.88;;
7295;SDS011;40758;54.038;11.684;2024-01-10T03:34:49;15.43;;;6.72;;
7295;SDS011;40758;54.038;11.684;2024-01-10T03:37:18;16.05;;;11.77;;
7295;SDS011;40758;54.038;11.684;2024-01-10T03:39:45;15.85;;;10.68;;
7295;SDS011;40758;54.038;11.684;2024-01-10T03:42:11;18.08;;;10.75;;
7295;SDS011;40758;54.038;11.684;2024-01-10T03:44:38;16.85;;;11.38;;
7295;SDS011;40758;54.038;11.684;2024-01-10T03:47:05;15.98;;;7.05;;
7295;SDS011;40758;54.038;11.684;2024-01-10T03:49:32;2.88;;;1.58;;
7295;SDS011;40758;54.038;11.684;2024-01-10T03:51:58;17.02;;;7.68;;
7295;SDS011;40758;54.038;11.684;2024-01-10T03:54:25;12.35;;;8.27;;
7295;SDS011;40758;54.038;11.684;2024-01-10T03:56:52;7.80;;;3.88;;
7295;SDS011;40758;54.038;11.684;2024-01-10T03:59:18;14.93;;;9.32;;
7295;SDS011;40758;54.038;11.684;2024-01-10T04:01:45;14.73;;;7.72;;
7295;SDS011;40758;54.038;11.684;2024-01-10T04:04:12;14.63;;;7.18;;
7295;SDS011;40758;54.038;11.684;2024-01-10T04:06:39;17.92;;;7.10;;
7295;SDS011;40758;54.038;11.684;2024-01-10T04:09:06;19.17;;;9.93;;
7295;SDS011;40758;54.038;11.684;2024-01-10T04:11:35;10.38;;;7.85;;
7295;SDS011;40758;54.038;11.684;2024-01-10T04:14:02;16.45;;;9.82;;
7295;SDS011;40758;54.038;11.684;2024-01-10T04:16:30;14.65;;;6.93;;
7295;SDS011;40758;54.038;11.684;2024-01-10T04:18:57;15.68;;;6.68;;
7295;SDS011;40758;54.038;11.684;2024-01-10T04:21:23;15.07;;;6.57;;
7295;SDS011;40758;54.038;11.684;2024-01-10T04:23:50;18.75;;;10.60;;
7295;SDS011;40758;54.038;11.684;2024-01-10T04:26:18;15.90;;;9.27;;
7295;SDS011;40758;54.038;11.684;2024-01-10T04:28:45;15.43;;;9.90;;
7295;SDS011;40758;54.038;11.684;2024-01-10T04:31:12;19.02;;;13.95;;
7295;SDS011;40758;54.038;11.684;2024-01-10T04:33:38;17.38;;;6.53;;
7295;SDS011;40758;54.038;11.684;2024-01-10T04:36:05;11.30;;;4.95;;
7295;SDS011;40758;54.038;11.684;2024-01-10T04:38:32;16.40;;;9.98;;
7295;SDS011;40758;54.038;11.684;2024-01-10T04:40:59;18.95;;;8.10;;
7295;SDS011;40758;54.038;11.684;2024-01-10T04:43:26;20.83;;;10.90;;
7295;SDS011;40758;54.038;11.684;2024-01-10T04:45:52;15.15;;;6.57;;
7295;SDS011;40758;54.038;11.684;2024-01-10T04:48:19;15.43;;;6.80;;
7295;SDS011;40758;54.038;11.684;2024-01-10T04:50:46;20.42;;;11.80;;
7295;SDS011;40758;54.038;11.684;2024-01-10T04:53:13;6.75;;;5.78;;
7295;SDS011;40758;54.038;11.684;2024-01-10T04:55:40;7.00;;;4.95;;
7295;SDS011;40758;54.038;11.684;2024-01-10T04:58:07;18.85;;;11.20;;
7295;SDS011;40758;54.038;11.684;2024-01-10T05:00:34;22.52;;;10.70;;
7295;SDS011;40758;54.038;11.684;2024-01-10T05:03:01;26.55;;;13.77;;
7295;SDS011;40758;54.038;11.684;2024-01-10T05:05:28;20.33;;;9.35;;
7295;SDS011;40758;54.038;11.684;2024-01-10T05:07:55;21.80;;;8.50;;
7295;SDS011;40758;54.038;11.684;2024-01-10T05:10:22;5.63;;;5.13;;
7295;SDS011;40758;54.038;11.684;2024-01-10T05:12:49;25.90;;;12.82;;
7295;SDS011;40758;54.038;11.684;2024-01-10T05:15:15;19.92;;;11.73;;
7295;SDS011;40758;54.038;11.684;2024-01-10T05:17:42;23.92;;;11.55;;
7295;SDS011;40758;54.038;11.684;2024-01-10T05:20:09;25.25;;;12.45;;
7295;SDS011;40758;54.038;11.684;2024-01-10T05:22:36;29.70;;;12.48;;
7295;SDS011;40758;54.038;11.684;2024-01-10T05:25:03;28.67;;;12.15;;
7295;SDS011;40758;54.038;11.684;2024-01-10T05:27:31;28.10;;;11.52;;
7295;SDS011;40758;54.038;11.684;2024-01-10T05:29:58;20.20;;;7.95;;
7295;SDS011;40758;54.038;11.684;2024-01-10T05:32:26;27.30;;;10.15;;
7295;SDS011;40758;54.038;11.684;2024-01-10T05:34:53;26.52;;;15.15;;
7295;SDS011;40758;54.038;11.684;2024-01-10T05:37:20;29.67;;;13.00;;
7295;SDS011;40758;54.038;11.684;2024-01-10T05:39:49;24.85;;;14.55;;
7295;SDS011;40758;54.038;11.684;2024-01-10T05:42:16;34.08;;;11.65;;
7295;SDS011;40758;54.038;11.684;2024-01-10T05:44:43;24.83;;;13.25;;
7295;SDS011;40758;54.038;11.684;2024-01-10T05:47:09;26.95;;;12.73;;
7295;SDS011;40758;54.038;11.684;2024-01-10T05:49:36;24.58;;;12.65;;
7295;SDS011;40758;54.038;11.684;2024-01-10T05:52:03;32.33;;;10.85;;
7295;SDS011;40758;54.038;11.684;2024-01-10T05:54:30;27.75;;;11.73;;
7295;SDS011;40758;54.038;11.684;2024-01-10T05:56:56;29.90;;;15.32;;
7295;SDS011;40758;54.038;11.684;2024-01-10T05:59:24;36.05;;;16.38;;
7295;SDS011;40758;54.038;11.684;2024-01-10T06:01:55;35.05;;;12.60;;
7295;SDS011;40758;54.038;11.684;2024-01-10T06:04:22;29.95;;;15.27;;
7295;SDS011;40758;54.038;11.684;2024-01-10T06:06:49;35.85;;;13.02;;
7295;SDS011;40758;54.038;11.684;2024-01-10T06:09:16;33.90;;;12.90;;
7295;SDS011;40758;54.038;11.684;2024-01-10T06:11:49;32.53;;;18.42;;
7295;SDS011;40758;54.038;11.684;2024-01-10T06:14:16;29.48;;;15.27;;
7295;SDS011;40758;54.038;11.684;2024-01-10T06:16:44;29.25;;;13.30;;
7295;SDS011;40758;54.038;11.684;2024-01-10T06:19:11;28.00;;;11.68;;
7295;SDS011;40758;54.038;11.684;2024-01-10T06:21:38;31.48;;;15.13;;
7295;SDS011;40758;54.038;11.684;2024-01-10T06:24:05;26.90;;;14.20;;
7295;SDS011;40758;54.038;11.684;2024-01-10T06:26:32;36.45;;;14.15;;
7295;SDS011;40758;54.038;11.684;2024-01-10T06:28:58;29.83;;;16.33;;
7295;SDS011;40758;54.038;11.684;2024-01-10T06:31:25;35.08;;;17.60;;
7295;SDS011;40758;54.038;11.684;2024-01-10T06:33:52;20.83;;;7.82;;
7295;SDS011;40758;54.038;11.684;2024-01-10T06:36:19;30.30;;;12.77;;
7295;SDS011;40758;54.038;11.684;2024-01-10T06:38:46;34.35;;;13.32;;
7295;SDS011;40758;54.038;11.684;2024-01-10T06:41:13;37.42;;;13.02;;
7295;SDS011;40758;54.038;11.684;2024-01-10T06:43:40;35.45;;;12.52;;
7295;SDS011;40758;54.038;11.684;2024-01-10T06:46:07;23.48;;;11.60;;
7295;SDS011;40758;54.038;11.684;2024-01-10T06:48:34;48.03;;;15.38;;
7295;SDS011;40758;54.038;11.684;2024-01-10T06:51:03;31.17;;;14.68;;
7295;SDS011;40758;54.038;11.684;2024-01-10T06:53:30;32.13;;;9.98;;
7295;SDS011;40758;54.038;11.684;2024-01-10T06:55:57;36.63;;;16.55;;
7295;SDS011;40758;54.038;11.684;2024-01-10T06:58:24;29.83;;;13.25;;
7295;SDS011;40758;54.038;11.684;2024-01-10T07:00:51;37.85;;;11.70;;
7295;SDS011;40758;54.038;11.684;2024-01-10T07:03:18;33.63;;;13.52;;
7295;SDS011;40758;54.038;11.684;2024-01-10T07:05:45;28.88;;;11.38;;
7295;SDS011;40758;54.038;11.684;2024-01-10T07:08:12;43.22;;;13.27;;
7295;SDS011;40758;54.038;11.684;2024-01-10T07:10:39;6.53;;;4.32;;
7295;SDS011;40758;54.038;11.684;2024-01-10T07:13:05;29.27;;;10.07;;
7295;SDS011;40758;54.038;11.684;2024-01-10T07:15:33;38.17;;;17.40;;
7295;SDS011;40758;54.038;11.684;2024-01-10T07:18:00;39.03;;;14.73;;
7295;SDS011;40758;54.038;11.684;2024-01-10T07:20:27;38.45;;;13.20;;
7295;SDS011;40758;54.038;11.684;2024-01-10T07:22:53;30.13;;;13.73;;
7295;SDS011;40758;54.038;11.684;2024-01-10T07:25:21;35.80;;;12.75;;
7295;SDS011;40758;54.038;11.684;2024-01-10T07:27:51;33.95;;;11.88;;
7295;SDS011;40758;54.038;11.684;2024-01-10T07:30:18;32.15;;;11.32;;
7295;SDS011;40758;54.038;11.684;2024-01-10T07:32:45;29.65;;;15.77;;
7295;SDS011;40758;54.038;11.684;2024-01-10T07:35:12;38.75;;;14.70;;
7295;SDS011;40758;54.038;11.684;2024-01-10T07:37:42;38.38;;;12.43;;
7295;SDS011;40758;54.038;11.684;2024-01-10T07:40:09;40.42;;;13.40;;
7295;SDS011;40758;54.038;11.684;2024-01-10T07:42:40;21.52;;;8.43;;
7295;SDS011;40758;54.038;11.684;2024-01-10T07:45:07;30.00;;;14.82;;
7295;SDS011;40758;54.038;11.684;2024-01-10T07:47:35;27.45;;;10.48;;
7295;SDS011;40758;54.038;11.684;2024-01-10T07:50:05;33.60;;;11.40;;
7295;SDS011;40758;54.038;11.684;2024-01-10T07:52:33;30.05;;;15.43;;
7295;SDS011;40758;54.038;11.684;2024-01-10T07:55:00;32.60;;;12.32;;
7295;SDS011;40758;54.038;11.684;2024-01-10T07:57:27;30.38;;;13.75;;
7295;SDS011;40758;54.038;11.684;2024-01-10T07:59:54;29.75;;;12.18;;
7295;SDS011;40758;54.038;11.684;2024-01-10T08:02:21;34.63;;;12.30;;
7295;SDS011;40758;54.038;11.684;2024-01-10T08:04:48;38.85;;;18.63;;
7295;SDS011;40758;54.038;11.684;2024-01-10T08:07:14;32.08;;;11.45;;
7295;SDS011;40758;54.038;11.684;2024-01-10T08:09:41;33.95;;;10.80;;
7295;SDS011;40758;54.038;11.684;2024-01-10T08:12:08;41.92;;;18.38;;
7295;SDS011;40758;54.038;11.684;2024-01-10T08:14:35;33.30;;;12.02;;
7295;SDS011;40758;54.038;11.684;2024-01-10T08:17:03;34.97;;;15.73;;
7295;SDS011;40758;54.038;11.684;2024-01-10T08:19:30;30.75;;;9.90;;
7295;SDS011;40758;54.038;11.684;2024-01-10T08:22:00;35.25;;;17.80;;
7295;SDS011;40758;54.038;11.684;2024-01-10T08:24:27;30.67;;;12.13;;
7295;SDS011;40758;54.038;11.684;2024-01-10T08:26:54;26.85;;;11.93;;
7295;SDS011;40758;54.038;11.684;2024-01-10T08:29:21;34.60;;;12.52;;
7295;SDS011;40758;54.038;11.684;2024-01-10T08:31:48;31.90;;;10.90;;
7295;SDS011;40758;54.038;11.684;2024-01-10T08:34:15;30.70;;;15.77;;
7295;SDS011;40758;54.038;11.684;2024-01-10T08:36:41;27.60;;;11.95;;
7295;SDS011;40758;54.038;11.684;2024-01-10T08:39:08;36.38;;;15.85;;
7295;SDS011;40758;54.038;11.684;2024-01-10T08:41:37;36.40;;;18.13;;
7295;SDS011;40758;54.038;11.684;2024-01-10T08:44:09;28.35;;;12.48;;
7295;SDS011;40758;54.038;11.684;2024-01-10T08:46:37;33.50;;;12.80;;
7295;SDS011;40758;54.038;11.684;2024-01-10T08:49:04;28.75;;;11.45;;
7295;SDS011;40758;54.038;11.684;2024-01-10T08:51:31;29.50;;;13.02;;
7295;SDS011;40758;54.038;11.684;2024-01-10T08:53:59;32.67;;;11.50;;
7295;SDS011;40758;54.038;11.684;2024-01-10T08:56:26;26.30;;;10.60;;
7295;SDS011;40758;54.038;11.684;2024-01-10T08:58:53;23.13;;;11.45;;
7295;SDS011;40758;54.038;11.684;2024-01-10T09:01:20;26.75;;;8.43;;
7295;SDS011;40758;54.038;11.684;2024-01-10T09:03:46;29.27;;;13.93;;
7295;SDS011;40758;54.038;11.684;2024-01-10T09:06:13;29.70;;;12.80;;
7295;SDS011;40758;54.038;11.684;2024-01-10T09:08:40;26.83;;;14.40;;
7295;SDS011;40758;54.038;11.684;2024-01-10T09:11:07;27.23;;;9.63;;
7295;SDS011;40758;54.038;11.684;2024-01-10T09:13:34;30.67;;;12.77;;
7295;SDS011;40758;54.038;11.684;2024-01-10T09:16:01;28.15;;;13.60;;
7295;SDS011;40758;54.038;11.684;2024-01-10T09:18:28;27.73;;;14.10;;
7295;SDS011;40758;54.038;11.684;2024-01-10T09:20:55;29.35;;;12.65;;
7295;SDS011;40758;54.038;11.684;2024-01-10T09:23:23;30.70;;;11.10;;
7295;SDS011;40758;54.038;11.684;2024-01-10T09:25:50;24.10;;;9.40;;
7295;SDS011;40758;54.038;11.684;2024-01-10T09:28:17;22.67;;;10.30;;
7295;SDS011;40758;54.038;11.684;2024-01-10T09:30:44;31.95;;;13.88;;
7295;SDS011;40758;54.038;11.684;2024-01-10T09:33:11;24.05;;;8.82;;
7295;SDS011;40758;54.038;11.684;2024-01-10T09:35:39;29.52;;;11.38;;
7295;SDS011;40758;54.038;11.684;2024-01-10T09:38:06;24.38;;;12.63;;
7295;SDS011;40758;54.038;11.684;2024-01-10T09:40:32;24.63;;;13.88;;
7295;SDS011;40758;54.038;11.684;2024-01-10T09:43:00;25.58;;;13.68;;
7295;SDS011;40758;54.038;11.684;2024-01-10T09:45:26;22.15;;;11.27;;
7295;SDS011;40758;54.038;11.684;2024-01-10T09:47:55;24.90;;;8.87;;
7295;SDS011;40758;54.038;11.684;2024-01-10T09:50:23;29.85;;;13.45;;
7295;SDS011;40758;54.038;11.684;2024-01-10T09:52:53;28.25;;;9.75;;
7295;SDS011;40758;54.038;11.684;2024-01-10T09:55:22;28.92;;;13.05;;
7295;SDS011;40758;54.038;11.684;2024-01-10T09:57:51;27.42;;;11.57;;
7295;SDS011;40758;54.038;11.684;2024-01-10T10:00:18;22.77;;;8.77;;
7295;SDS011;40758;54.038;11.684;2024-01-10T10:02:49;20.80;;;7.75;;
7295;SDS011;40758;54.038;11.684;2024-01-10T10:05:18;30.30;;;10.60;;
7295;SDS011;40758;54.038;11.684;2024-01-10T10:07:45;29.27;;;14.27;;
7295;SDS011;40758;54.038;11.684;2024-01-10T10:10:18;24.10;;;11.65;;
7295;SDS011;40758;54.038;11.684;2024-01-10T10:12:46;23.50;;;11.88;;
7295;SDS011;40758;54.038;11.684;2024-01-10T10:15:24;28.35;;;15.05;;
7295;SDS011;40758;54.038;11.684;2024-01-10T10:17:54;24.42;;;10.50;;
7295;SDS011;40758;54.038;11.684;2024-01-10T10:20:31;26.65;;;10.35;;
7295;SDS011;40758;54.038;11.684;2024-01-10T10:23:04;17.17;;;8.25;;
7295;SDS011;40758;54.038;11.684;2024-01-10T10:25:36;26.05;;;10.43;;
7295;SDS011;40758;54.038;11.684;2024-01-10T10:28:08;27.70;;;12.18;;
7295;SDS011;40758;54.038;11.684;2024-01-10T10:30:51;28.95;;;13.20;;
7295;SDS011;40758;54.038;11.684;2024-01-10T10:33:18;24.85;;;14.80;;
7295;SDS011;40758;54.038;11.684;2024-01-10T10:35:45;24.65;;;10.70;;
7295;SDS011;40758;54.038;11.684;2024-01-10T10:38:15;20.83;;;6.25;;
7295;SDS011;40758;54.038;11.684;2024-01-10T10:40:42;23.13;;;13.18;;
7295;SDS011;40758;54.038;11.684;2024-01-10T10:43:11;15.65;;;10.43;;
7295;SDS011;40758;54.038;11.684;2024-01-10T10:45:44;27.60;;;9.98;;
7295;SDS011;40758;54.038;11.684;2024-01-10T10:48:18;21.75;;;12.07;;
7295;SDS011;40758;54.038;11.684;2024-01-10T10:50:59;18.17;;;7.47;;
7295;SDS011;40758;54.038;11.684;2024-01-10T10:53:30;25.77;;;11.05;;
7295;SDS011;40758;54.038;11.684;2024-01-10T10:56:00;26.92;;;12.70;;
7295;SDS011;40758;54.038;11.684;2024-01-10T10:58:29;8.98;;;4.25;;
7295;SDS011;40758;54.038;11.684;2024-01-10T11:01:05;22.60;;;12.60;;
7295;SDS011;40758;54.038;11.684;2024-01-10T11:03:37;24.67;;;14.32;;
7295;SDS011;40758;54.038;11.684;2024-01-10T11:06:08;20.52;;;11.05;;
7295;SDS011;40758;54.038;11.684;2024-01-10T11:08:40;23.65;;;12.35;;
7295;SDS011;40758;54.038;11.684;2024-01-10T11:11:26;20.42;;;8.15;;
7295;SDS011;40758;54.038;11.684;2024-01-10T11:25:01;14.40;;;7.95;;
7295;SDS011;40758;54.038;11.684;2024-01-10T11:27:28;15.98;;;5.95;;
7295;SDS011;40758;54.038;11.684;2024-01-10T11:29:56;19.15;;;7.57;;
7295;SDS011;40758;54.038;11.684;2024-01-10T11:32:25;14.52;;;9.73;;
7295;SDS011;40758;54.038;11.684;2024-01-10T11:37:20;16.05;;;8.88;;
7295;SDS011;40758;54.038;11.684;2024-01-10T11:39:47;15.25;;;9.13;;
7295;SDS011;40758;54.038;11.684;2024-01-10T11:42:23;14.10;;;8.25;;
7295;SDS011;40758;54.038;11.684;2024-01-10T11:45:07;14.48;;;5.80;;
7295;SDS011;40758;54.038;11.684;2024-01-10T11:47:37;14.82;;;6.82;;
7295;SDS011;40758;54.038;11.684;2024-01-10T11:50:07;13.80;;;9.55;;
7295;SDS011;40758;54.038;11.684;2024-01-10T11:52:34;13.18;;;5.97;;
7295;SDS011;40758;54.038;11.684;2024-01-10T11:55:03;15.27;;;9.50;;
7295;SDS011;40758;54.038;11.684;2024-01-10T11:57:33;16.23;;;10.30;;
7295;SDS011;40758;54.038;11.684;2024-01-10T12:00:01;17.02;;;7.22;;
7295;SDS011;40758;54.038;11.684;2024-01-10T12:02:31;11.18;;;5.38;;
7295;SDS011;40758;54.038;11.684;2024-01-10T12:04:59;15.55;;;8.43;;
7295;SDS011;40758;54.038;11.684;2024-01-10T12:07:27;16.88;;;10.32;;
7295;SDS011;40758;54.038;11.684;2024-01-10T12:09:55;14.85;;;10.32;;
7295;SDS011;40758;54.038;11.684;2024-01-10T12:12:22;12.95;;;8.68;;
7295;SDS011;40758;54.038;11.684;2024-01-10T12:14:50;10.15;;;4.95;;
7295;SDS011;40758;54.038;11.684;2024-01-10T12:17:18;12.50;;;9.27;;
7295;SDS011;40758;54.038;11.684;2024-01-10T12:19:46;13.35;;;9.18;;
7295;SDS011;40758;54.038;11.684;2024-01-10T12:22:17;11.27;;;7.05;;
7295;SDS011;40758;54.038;11.684;2024-01-10T12:24:48;13.20;;;9.02;;
7295;SDS011;40758;54.038;11.684;2024-01-10T12:27:17;10.35;;;8.27;;
7295;SDS011;40758;54.038;11.684;2024-01-10T12:32:20;12.27;;;8.30;;
7295;SDS011;40758;54.038;11.684;2024-01-10T12:34:54;11.75;;;8.52;;
7295;SDS011;40758;54.038;11.684;2024-01-10T12:37:26;14.27;;;8.57;;
7295;SDS011;40758;54.038;11.684;2024-01-10T12:39:53;11.00;;;7.38;;
7295;SDS011;40758;54.038;11.684;2024-01-10T12:42:20;11.23;;;7.85;;
7295;SDS011;40758;54.038;11.684;2024-01-10T12:44:47;9.13;;;6.15;;
7295;SDS011;40758;54.038;11.684;2024-01-10T12:47:18;9.85;;;6.82;;
7295;SDS011;40758;54.038;11.684;2024-01-10T12:49:46;11.13;;;7.75;;
7295;SDS011;40758;54.038;11.684;2024-01-10T12:52:13;12.77;;;9.82;;
7295;SDS011;40758;54.038;11.684;2024-01-10T12:54:43;11.38;;;6.05;;
7295;SDS011;40758;54.038;11.684;2024-01-10T12:57:11;12.15;;;7.57;;
7295;SDS011;40758;54.038;11.684;2024-01-10T12:59:37;12.85;;;6.20;;
7295;SDS011;40758;54.038;11.684;2024-01-10T13:02:04;12.05;;;6.03;;
7295;SDS011;40758;54.038;11.684;2024-01-10T13:04:32;13.63;;;6.78;;
7295;SDS011;40758;54.038;11.684;2024-01-10T13:06:59;12.15;;;6.90;;
7295;SDS011;40758;54.038;11.684;2024-01-10T13:09:26;14.20;;;9.48;;
7295;SDS011;40758;54.038;11.684;2024-01-10T13:11:54;14.48;;;9.65;;
7295;SDS011;40758;54.038;11.684;2024-01-10T13:14:20;12.75;;;5.43;;
7295;SDS011;40758;54.038;11.684;2024-01-10T13:16:47;14.52;;;9.02;;
7295;SDS011;40758;54.038;11.684;2024-01-10T13:19:25;13.20;;;9.05;;
7295;SDS011;40758;54.038;11.684;2024-01-10T13:21:53;16.60;;;6.72;;
7295;SDS011;40758;54.038;11.684;2024-01-10T13:24:20;14.43;;;9.07;;
7295;SDS011;40758;54.038;11.684;2024-01-10T13:26:47;7.88;;;3.92;;
7295;SDS011;40758;54.038;11.684;2024-01-10T13:29:15;11.30;;;7.90;;
7295;SDS011;40758;54.038;11.684;2024-01-10T13:31:42;11.50;;;6.93;;
7295;SDS011;40758;54.038;11.684;2024-01-10T13:34:09;12.70;;;8.10;;
7295;SDS011;40758;54.038;11.684;2024-01-10T13:36:38;13.77;;;8.15;;
7295;SDS011;40758;54.038;11.684;2024-01-10T13:39:06;12.82;;;6.85;;
7295;SDS011;40758;54.038;11.684;2024-01-10T13:41:34;8.80;;;5.25;;
7295;SDS011;40758;54.038;11.684;2024-01-10T13:44:01;10.18;;;6.63;;
7295;SDS011;40758;54.038;11.684;2024-01-10T13:46:28;13.13;;;9.70;;
7295;SDS011;40758;54.038;11.684;2024-01-10T13:48:55;13.80;;;7.68;;
7295;SDS011;40758;54.038;11.684;2024-01-10T13:51:22;6.90;;;2.50;;
7295;SDS011;40758;54.038;11.684;2024-01-10T13:53:49;15.52;;;8.80;;
7295;SDS011;40758;54.038;11.684;2024-01-10T13:56:15;13.32;;;5.90;;
7295;SDS011;40758;54.038;11.684;2024-01-10T13:58:42;10.88;;;4.53;;
7295;SDS011;40758;54.038;11.684;2024-01-10T14:01:09;11.55;;;7.43;;
7295;SDS011;40758;54.038;11.684;2024-01-10T14:03:36;13.63;;;10.70;;
7295;SDS011;40758;54.038;11.684;2024-01-10T14:06:03;15.05;;;7.82;;
7295;SDS011;40758;54.038;11.684;2024-01-10T14:08:31;11.30;;;5.40;;
7295;SDS011;40758;54.038;11.684;2024-01-10T14:10:58;14.48;;;8.60;;
7295;SDS011;40758;54.038;11.684;2024-01-10T14:13:26;10.95;;;8.18;;
7295;SDS011;40758;54.038;11.684;2024-01-10T14:15:54;14.68;;;6.65;;
7295;SDS011;40758;54.038;11.684;2024-01-10T14:18:21;14.38;;;6.28;;
7295;SDS011;40758;54.038;11.684;2024-01-10T14:20:48;13.77;;;8.15;;
7295;SDS011;40758;54.038;11.684;2024-01-10T14:23:15;11.75;;;6.03;;
7295;SDS011;40758;54.038;11.684;2024-01-10T14:25:45;13.48;;;8.40;;
7295;SDS011;40758;54.038;11.684;2024-01-10T14:28:12;12.85;;;5.32;;
7295;SDS011;40758;54.038;11.684;2024-01-10T14:30:39;12.88;;;9.38;;
7295;SDS011;40758;54.038;11.684;2024-01-10T14:33:06;10.55;;;6.75;;
7295;SDS011;40758;54.038;11.684;2024-01-10T14:35:33;10.88;;;7.05;;
7295;SDS011;40758;54.038;11.684;2024-01-10T14:38:00;12.05;;;7.88;;
7295;SDS011;40758;54.038;11.684;2024-01-10T14:40:27;12.98;;;5.68;;
7295;SDS011;40758;54.038;11.684;2024-01-10T14:42:53;11.15;;;6.80;;
7295;SDS011;40758;54.038;11.684;2024-01-10T14:45:20;15.23;;;6.65;;
7295;SDS011;40758;54.038;11.684;2024-01-10T14:47:47;14.00;;;8.57;;
7295;SDS011;40758;54.038;11.684;2024-01-10T14:50:16;16.58;;;8.95;;